Time;durP1;ratioP1;P1;durP2;ratioP2;P2;SDS_P1;SDS_P2;PMS_P1;PMS_P2;Temp;Humidity;BMP_temperature;BMP_pressure;BME280_temperature;BME280_humidity;BME280_pressure;Samples;Min_cycle;Max_cycle;Signal;HPM_P1;HPM_P2
2021/08/24 00:01:57;;;;;;;4.10;2.83;;;;;;;22.16;73.20;103066.66;5074460;28;20476;-67
2021/08/24 00:04:23;;;;;;;3.90;2.78;;;;;;;22.16;73.59;103064.81;5080524;28;20316;-67
2021/08/24 00:06:48;;;;;;;3.53;2.83;;;;;;;22.16;73.46;103066.66;5097879;28;20051;-67
2021/08/24 00:09:14;;;;;;;5.38;2.80;;;;;;;22.16;73.34;103066.66;5096704;28;20062;-67
2021/08/24 00:11:39;;;;;;;5.20;3.20;;;;;;;22.17;73.25;103071.00;5090181;28;20101;-68
2021/08/24 00:14:06;;;;;;;5.03;2.88;;;;;;;22.17;73.29;103071.00;5108465;28;20035;-67
2021/08/24 00:16:32;;;;;;;4.40;2.80;;;;;;;22.17;73.20;103081.69;5081105;28;20047;-67
2021/08/24 00:18:58;;;;;;;3.95;2.90;;;;;;;22.17;73.41;103079.03;5087246;28;20039;-67
2021/08/24 00:21:24;;;;;;;4.43;3.08;;;;;;;22.18;73.52;103083.38;5097959;28;20031;-67
2021/08/24 00:23:50;;;;;;;5.78;3.22;;;;;;;22.16;73.16;103086.19;5105750;28;20039;-68
2021/08/24 00:26:16;;;;;;;6.60;3.30;;;;;;;22.17;73.52;103081.69;5094355;28;20049;-67
2021/08/24 00:28:41;;;;;;;3.53;2.95;;;;;;;22.17;73.36;103079.84;5102026;28;20035;-67
2021/08/24 00:31:07;;;;;;;5.20;3.35;;;;;;;22.18;73.34;103080.69;5092571;28;20036;-67
2021/08/24 00:33:32;;;;;;;4.28;3.00;;;;;;;22.18;73.56;103075.34;5088663;28;20036;-68
2021/08/24 00:35:58;;;;;;;4.15;3.00;;;;;;;22.17;73.37;103073.69;5057141;28;20545;-67
2021/08/24 00:38:25;;;;;;;3.67;2.60;;;;;;;22.17;73.45;103073.69;5073876;28;20363;-67
2021/08/24 00:40:58;;;;;;;5.40;3.00;;;;;;;22.16;73.27;103072.00;5104752;28;20521;-68
2021/08/24 00:43:25;;;;;;;3.53;2.75;;;;;;;22.17;73.31;103073.69;5096904;28;20111;-68
2021/08/24 00:45:55;;;;;;;4.60;3.35;;;;;;;22.16;73.61;103078.19;5088402;28;20040;-68
2021/08/24 00:48:28;;;;;;;4.72;3.30;;;;;;;22.16;73.29;103078.19;5066414;28;20039;-68
2021/08/24 00:50:54;;;;;;;4.57;2.88;;;;;;;22.17;73.38;103082.53;5101373;28;20558;-67
2021/08/24 00:53:23;;;;;;;3.85;2.90;;;;;;;22.17;73.27;103079.03;5083278;28;20111;-67
2021/08/24 00:55:50;;;;;;;3.80;3.05;;;;;;;22.17;73.54;103074.50;5100314;28;20077;-67
2021/08/24 00:58:16;;;;;;;4.03;2.85;;;;;;;22.18;73.43;103075.34;5051810;28;20140;-67
2021/08/24 01:00:43;;;;;;;4.45;3.08;;;;;;;22.19;73.50;103079.69;5074462;28;20123;-67
2021/08/24 01:03:14;;;;;;;4.80;3.20;;;;;;;22.18;73.34;103080.69;5087990;28;20032;-67
2021/08/24 01:05:41;;;;;;;4.65;3.20;;;;;;;22.18;73.50;103075.34;5108876;28;20031;-67
2021/08/24 01:08:29;;;;;;;4.45;3.15;;;;;;;22.14;73.29;103069.50;5105697;28;20039;-67
2021/08/24 01:11:29;;;;;;;5.53;2.58;;;;;;;22.13;73.35;103073.16;5084726;28;20126;-67
2021/08/24 01:14:09;;;;;;;4.13;3.20;;;;;;;22.17;73.34;103076.34;5097681;28;20028;-68
2021/08/24 01:16:42;;;;;;;3.75;2.75;;;;;;;22.18;73.56;103070.00;5094624;28;20032;-68
2021/08/24 01:19:45;;;;;;;4.82;3.10;;;;;;;22.13;73.55;103072.31;5094693;28;20027;-67
2021/08/24 01:22:41;;;;;;;4.18;2.55;;;;;;;22.14;73.27;103068.66;4997851;28;20038;-67
2021/08/24 01:25:48;;;;;;;4.35;2.50;;;;;;;22.13;73.50;103075.00;5078134;28;20062;-67
2021/08/24 01:28:43;;;;;;;3.95;2.83;;;;;;;22.15;73.30;103064.97;5031726;28;20036;-67
2021/08/24 01:31:26;;;;;;;4.35;2.80;;;;;;;22.15;73.39;103057.78;5078820;28;20471;-67
2021/08/24 01:33:54;;;;;;;4.30;3.00;;;;;;;22.17;73.33;103058.47;5086233;28;20035;-67
2021/08/24 01:36:26;;;;;;;3.78;2.70;;;;;;;22.16;73.37;103055.97;5109105;28;20499;-67
2021/08/24 01:39:24;;;;;;;4.95;2.90;;;;;;;22.13;73.40;103059.78;5084768;28;20032;-67
2021/08/24 01:42:15;;;;;;;4.25;2.80;;;;;;;22.14;73.24;103049.94;5044519;28;20134;-67
2021/08/24 01:44:52;;;;;;;3.83;2.70;;;;;;;22.15;73.33;103056.97;5104793;28;20070;-67
2021/08/24 01:47:49;;;;;;;4.18;2.90;;;;;;;22.13;73.67;103057.13;5073861;28;20035;-67
2021/08/24 01:50:23;;;;;;;3.55;2.70;;;;;;;22.17;73.41;103053.13;5080790;28;20069;-67
2021/08/24 01:53:02;;;;;;;3.55;2.90;;;;;;;22.17;73.59;103053.13;5077950;28;20113;-68
2021/08/24 01:55:31;;;;;;;3.70;2.55;;;;;;;22.16;73.49;103045.28;5082399;28;20042;-68
2021/08/24 01:58:14;;;;;;;4.28;2.90;;;;;;;22.18;73.46;103053.97;5109015;28;20031;-67
2021/08/24 02:00:45;;;;;;;3.78;2.90;;;;;;;22.17;73.38;103053.13;5083232;28;20028;-67
2021/08/24 02:03:13;;;;;;;3.78;2.47;;;;;;;22.18;73.27;103046.78;5090069;28;20523;-67
2021/08/24 02:05:48;;;;;;;4.32;2.78;;;;;;;22.17;73.25;103050.44;5093201;28;20511;-67
2021/08/24 02:08:18;;;;;;;3.92;2.65;;;;;;;22.19;73.50;103050.28;5096039;28;20028;-67
2021/08/24 02:10:47;;;;;;;3.63;2.58;;;;;;;22.19;73.47;103052.97;5090384;28;20601;-68
2021/08/24 02:13:17;;;;;;;4.15;2.80;;;;;;;22.19;73.61;103055.63;5094290;28;20036;-67
2021/08/24 02:15:56;;;;;;;3.58;2.63;;;;;;;22.16;73.44;103055.97;5091545;28;20054;-67
2021/08/24 02:18:27;;;;;;;3.88;2.83;;;;;;;22.17;73.46;103058.47;5092750;28;20062;-67
2021/08/24 02:21:01;;;;;;;3.55;2.88;;;;;;;22.18;73.46;103057.47;5068479;28;20027;-67
2021/08/24 02:23:30;;;;;;;4.32;3.10;;;;;;;22.18;73.22;103062.81;5082442;28;20028;-67
2021/08/24 02:26:00;;;;;;;3.50;2.75;;;;;;;22.18;73.45;103062.81;5097712;28;20663;-67
2021/08/24 02:28:36;;;;;;;3.35;2.55;;;;;;;22.17;73.51;103057.63;5093609;28;20114;-67
2021/08/24 02:31:13;;;;;;;3.20;2.60;;;;;;;22.17;73.45;103062.97;5077117;28;20055;-67
2021/08/24 02:33:51;;;;;;;3.50;2.80;;;;;;;22.17;73.20;103057.63;5094970;28;20054;-67
2021/08/24 02:36:18;;;;;;;3.70;2.88;;;;;;;22.19;73.26;103060.97;5082728;28;20106;-67
2021/08/24 02:38:56;;;;;;;3.97;2.70;;;;;;;22.18;73.40;103059.31;5100508;28;20028;-67
2021/08/24 02:41:31;;;;;;;4.45;2.90;;;;;;;22.18;73.56;103060.16;5088225;28;20028;-67
2021/08/24 02:44:05;;;;;;;3.95;2.80;;;;;;;22.19;73.40;103055.63;5096153;28;20028;-67
2021/08/24 02:46:39;;;;;;;4.47;3.03;;;;;;;22.18;73.39;103056.63;5081079;28;20433;-67
2021/08/24 02:49:12;;;;;;;4.30;2.88;;;;;;;22.19;73.38;103055.63;5094253;28;20058;-67
2021/08/24 02:51:38;;;;;;;4.38;3.10;;;;;;;22.20;73.36;103052.81;5088094;28;20104;-68
2021/08/24 02:54:16;;;;;;;3.70;2.65;;;;;;;22.18;73.26;103049.44;5111153;28;20031;-67
2021/08/24 02:56:42;;;;;;;3.85;2.90;;;;;;;22.19;73.32;103048.44;5082870;28;20056;-68
2021/08/24 02:59:09;;;;;;;4.38;2.55;;;;;;;22.20;73.32;103051.97;5094517;28;20043;-67
2021/08/24 03:01:35;;;;;;;4.50;3.10;;;;;;;22.20;73.24;103042.09;5096625;28;20031;-67
2021/08/24 03:04:02;;;;;;;3.75;2.83;;;;;;;22.19;73.08;103045.78;5100417;28;20046;-68
2021/08/24 03:06:29;;;;;;;4.38;2.40;;;;;;;22.20;73.33;103047.44;5107451;28;20497;-67
2021/08/24 03:08:55;;;;;;;3.92;2.80;;;;;;;22.19;73.64;103043.09;5062743;28;20051;-67
2021/08/24 03:11:25;;;;;;;4.13;2.95;;;;;;;22.20;73.40;103041.28;5083880;28;20028;-67
2021/08/24 03:14:20;;;;;;;4.85;2.92;;;;;;;22.18;73.53;103038.75;5103393;28;20032;-66
2021/08/24 03:16:56;;;;;;;4.25;3.10;;;;;;;22.19;73.09;103035.09;5084779;28;20040;-67
2021/08/24 03:19:25;;;;;;;6.45;4.28;;;;;;;22.19;73.19;103044.94;5090554;28;20035;-68
2021/08/24 03:21:54;;;;;;;4.18;3.10;;;;;;;22.20;73.40;103046.63;5106307;28;20042;-67
2021/08/24 03:24:20;;;;;;;3.50;2.65;;;;;;;22.20;73.62;103034.09;5099323;28;20051;-67
2021/08/24 03:26:47;;;;;;;4.57;3.03;;;;;;;22.20;73.22;103042.09;5094249;28;20107;-68
2021/08/24 03:29:16;;;;;;;3.67;2.97;;;;;;;22.21;73.35;103042.94;5078266;28;20039;-67
2021/08/24 03:31:44;;;;;;;4.32;3.00;;;;;;;22.21;73.31;103042.94;5089410;28;20540;-67
2021/08/24 03:34:09;;;;;;;3.47;2.58;;;;;;;22.20;73.45;103044.78;5090133;28;20649;-67
2021/08/24 03:36:35;;;;;;;4.15;2.80;;;;;;;22.19;73.03;103042.28;5095239;28;20052;-67
2021/08/24 03:39:01;;;;;;;4.30;2.90;;;;;;;22.20;73.01;103043.94;5100087;28;20032;-68
2021/08/24 03:41:27;;;;;;;4.03;2.60;;;;;;;22.19;73.16;103037.75;5109686;28;20050;-68
2021/08/24 03:43:53;;;;;;;4.70;3.05;;;;;;;22.21;73.28;103045.63;5094474;28;20024;-68
2021/08/24 03:46:19;;;;;;;4.28;3.15;;;;;;;22.21;73.29;103048.28;5109373;28;20040;-67
2021/08/24 03:48:45;;;;;;;5.32;3.25;;;;;;;22.20;73.41;103041.28;5070204;28;20052;-67
2021/08/24 03:51:11;;;;;;;4.07;2.95;;;;;;;22.20;73.04;103042.09;5108168;28;20042;-67
2021/08/24 03:53:36;;;;;;;3.53;2.88;;;;;;;22.21;73.03;103034.91;5109482;28;20543;-67
2021/08/24 03:56:05;;;;;;;5.32;3.17;;;;;;;22.20;73.24;103038.59;5093541;28;20390;-68
2021/08/24 03:58:31;;;;;;;3.83;2.83;;;;;;;22.21;73.13;103035.75;5100635;28;20039;-68
2021/08/24 04:00:56;;;;;;;3.83;2.95;;;;;;;22.21;73.08;103042.94;5100336;28;20058;-67
2021/08/24 04:03:22;;;;;;;3.90;3.08;;;;;;;22.21;73.29;103041.09;5095396;28;20047;-67
2021/08/24 04:05:47;;;;;;;3.97;2.85;;;;;;;22.21;73.00;103045.63;5109558;28;20038;-67
2021/08/24 04:08:13;;;;;;;3.72;2.85;;;;;;;22.21;72.92;103042.94;5066622;28;20382;-67
2021/08/24 04:10:40;;;;;;;5.35;3.22;;;;;;;22.21;73.07;103042.94;5091360;28;20044;-67
2021/08/24 04:13:05;;;;;;;3.17;2.47;;;;;;;22.20;73.15;103031.41;5094490;28;20074;-67
2021/08/24 04:15:30;;;;;;;3.83;2.88;;;;;;;22.21;73.09;103026.91;5109495;28;20467;-68
2021/08/24 04:17:56;;;;;;;4.50;3.05;;;;;;;22.21;72.97;103032.25;5095161;28;20364;-68
2021/08/24 04:20:21;;;;;;;4.60;2.80;;;;;;;22.20;73.21;103034.09;5100941;28;20463;-67
2021/08/24 04:22:49;;;;;;;4.05;3.05;;;;;;;22.20;72.97;103031.41;5070015;28;20032;-67
2021/08/24 04:25:16;;;;;;;4.13;3.05;;;;;;;22.20;73.14;103028.75;5067207;28;20032;-67
2021/08/24 04:27:43;;;;;;;4.32;3.22;;;;;;;22.21;72.91;103026.91;5088323;28;20028;-67
2021/08/24 04:30:09;;;;;;;3.95;2.95;;;;;;;22.21;73.05;103022.38;5082307;28;20566;-68
2021/08/24 04:32:36;;;;;;;3.63;2.50;;;;;;;22.20;73.19;103026.06;5086678;28;20573;-68
2021/08/24 04:35:03;;;;;;;4.20;3.10;;;;;;;22.22;72.89;103024.06;5071477;28;20398;-68
2021/08/24 04:37:28;;;;;;;3.97;3.22;;;;;;;22.21;73.08;103016.22;5071862;28;20517;-67
2021/08/24 04:39:54;;;;;;;4.75;3.13;;;;;;;22.22;73.13;103017.88;5090052;28;20063;-68
2021/08/24 04:42:19;;;;;;;3.85;2.75;;;;;;;22.21;72.82;103021.56;5088580;28;20426;-67
2021/08/24 04:44:45;;;;;;;3.90;3.10;;;;;;;22.21;73.16;103022.38;5090152;28;20398;-67
2021/08/24 04:47:10;;;;;;;3.83;2.70;;;;;;;22.20;73.17;103023.38;5066041;28;20070;-67
2021/08/24 04:49:36;;;;;;;4.05;3.00;;;;;;;22.21;73.20;103029.56;5069675;28;20040;-67
2021/08/24 04:52:02;;;;;;;4.68;2.97;;;;;;;22.21;72.97;103034.91;5071840;28;20039;-68
2021/08/24 04:54:33;;;;;;;3.95;3.05;;;;;;;22.21;72.98;103032.25;5072298;28;20442;-68
2021/08/24 04:57:00;;;;;;;4.35;3.08;;;;;;;22.22;72.94;103031.25;5089306;28;20039;-68
2021/08/24 04:59:26;;;;;;;4.20;3.10;;;;;;;22.21;72.83;103034.91;5075111;28;20044;-68
2021/08/24 05:01:51;;;;;;;4.35;3.22;;;;;;;22.21;73.24;103034.91;5093083;28;20032;-68
2021/08/24 05:04:17;;;;;;;4.93;3.38;;;;;;;22.20;73.12;103036.75;5087841;28;20399;-68
2021/08/24 05:06:42;;;;;;;4.10;3.10;;;;;;;22.20;72.71;103039.44;5103533;28;20043;-68
2021/08/24 05:09:08;;;;;;;4.50;3.25;;;;;;;22.21;72.99;103037.59;5070333;28;20096;-68
2021/08/24 05:11:33;;;;;;;3.83;3.13;;;;;;;22.21;72.90;103040.28;5092079;28;20039;-68
2021/08/24 05:13:58;;;;;;;3.45;2.85;;;;;;;22.21;72.90;103037.59;5090071;28;20036;-68
2021/08/24 05:16:24;;;;;;;4.28;3.00;;;;;;;22.21;72.93;103040.28;5104053;28;20031;-68
2021/08/24 05:18:49;;;;;;;4.82;3.28;;;;;;;22.21;73.09;103037.59;5084922;28;20038;-67
2021/08/24 05:21:15;;;;;;;4.22;3.08;;;;;;;22.20;72.99;103036.75;5089502;28;20139;-68
2021/08/24 05:23:42;;;;;;;4.40;3.05;;;;;;;22.21;72.96;103042.94;5095037;28;20368;-67
2021/08/24 05:26:10;;;;;;;5.28;3.40;;;;;;;22.21;72.98;103038.44;5092905;28;20036;-68
2021/08/24 05:28:35;;;;;;;3.70;2.97;;;;;;;22.20;72.76;103035.94;5071277;28;20032;-68
2021/08/24 05:31:01;;;;;;;4.35;2.90;;;;;;;22.21;72.77;103034.91;5090385;28;20040;-68
2021/08/24 05:33:26;;;;;;;4.05;2.97;;;;;;;22.21;72.95;103032.25;5090023;28;20710;-68
2021/08/24 05:35:52;;;;;;;4.32;3.05;;;;;;;22.21;73.07;103032.25;5061104;28;20048;-67
2021/08/24 05:38:17;;;;;;;4.25;2.90;;;;;;;22.21;72.97;103037.59;5018456;28;20048;-68
2021/08/24 05:40:43;;;;;;;3.97;2.83;;;;;;;22.20;73.09;103030.56;5032561;28;20512;-67
2021/08/24 05:43:08;;;;;;;4.10;3.17;;;;;;;22.20;72.97;103038.59;5023915;28;20489;-68
2021/08/24 05:45:34;;;;;;;4.15;3.00;;;;;;;22.20;72.86;103041.28;5031210;28;20044;-68
2021/08/24 05:47:59;;;;;;;4.35;3.05;;;;;;;22.20;73.01;103036.75;5049270;28;20053;-68
2021/08/24 05:50:26;;;;;;;4.20;3.28;;;;;;;22.21;72.79;103040.28;5032418;28;20033;-67
2021/08/24 05:52:53;;;;;;;4.72;3.20;;;;;;;22.20;72.82;103046.63;5050947;28;20036;-68
2021/08/24 05:55:18;;;;;;;4.25;2.90;;;;;;;22.20;72.83;103046.63;5049413;28;20144;-68
2021/08/24 05:57:44;;;;;;;4.15;3.10;;;;;;;22.20;73.13;103044.78;5051191;28;20119;-68
2021/08/24 06:00:10;;;;;;;4.32;3.28;;;;;;;22.22;72.74;103041.94;5057357;28;20068;-67
2021/08/24 06:02:37;;;;;;;4.32;3.22;;;;;;;22.20;73.02;103046.63;5033349;28;20396;-67
2021/08/24 06:05:04;;;;;;;4.30;3.03;;;;;;;22.21;73.12;103050.97;5070389;28;20032;-68
2021/08/24 06:07:29;;;;;;;3.67;2.88;;;;;;;22.20;73.04;103050.13;5014022;28;20489;-67
2021/08/24 06:09:55;;;;;;;4.97;3.13;;;;;;;22.20;72.68;103047.44;5063450;28;20029;-68
2021/08/24 06:12:20;;;;;;;4.35;3.20;;;;;;;22.20;72.69;103044.78;5042184;28;20468;-68
2021/08/24 06:14:46;;;;;;;4.13;3.00;;;;;;;22.20;72.71;103043.94;5067354;28;20036;-67
2021/08/24 06:17:11;;;;;;;4.35;3.08;;;;;;;22.21;72.53;103042.94;5039683;28;20041;-67
2021/08/24 06:19:37;;;;;;;4.28;2.95;;;;;;;22.20;72.89;103046.63;5045358;28;20116;-68
2021/08/24 06:22:03;;;;;;;4.50;3.40;;;;;;;22.20;72.87;103042.09;5063378;28;20388;-68
2021/08/24 06:24:30;;;;;;;4.55;3.25;;;;;;;22.21;72.89;103049.13;5049991;28;20044;-68
2021/08/24 06:26:57;;;;;;;4.88;3.33;;;;;;;22.21;72.95;103048.28;5015445;28;20079;-68
2021/08/24 06:29:23;;;;;;;5.10;3.33;;;;;;;22.21;72.80;103050.97;5032907;28;20599;-68
2021/08/24 06:31:52;;;;;;;5.05;3.50;;;;;;;22.21;72.65;103053.63;5055135;28;20037;-68
2021/08/24 06:34:19;;;;;;;5.30;3.35;;;;;;;22.21;72.79;103054.47;5072149;28;20445;-67
2021/08/24 06:36:45;;;;;;;4.60;3.13;;;;;;;22.21;72.70;103054.47;5035621;28;20059;-67
2021/08/24 06:39:11;;;;;;;4.53;3.10;;;;;;;22.22;72.87;103047.28;5069738;28;20075;-68
2021/08/24 06:41:38;;;;;;;4.88;3.38;;;;;;;22.22;72.73;103052.63;5074429;28;20052;-67
2021/08/24 06:44:06;;;;;;;4.65;3.42;;;;;;;22.22;72.67;103047.28;5072656;28;20478;-67
2021/08/24 06:46:33;;;;;;;4.88;3.53;;;;;;;22.20;72.61;103042.09;5070314;28;20036;-67
2021/08/24 06:48:58;;;;;;;4.10;3.10;;;;;;;22.21;72.59;103043.78;5055513;28;20372;-67
2021/08/24 06:51:24;;;;;;;4.70;3.42;;;;;;;22.21;72.91;103048.28;5070172;28;20036;-67
2021/08/24 06:53:49;;;;;;;4.10;3.13;;;;;;;22.21;72.61;103054.47;5071749;28;20060;-67
2021/08/24 06:56:15;;;;;;;4.50;3.30;;;;;;;22.20;72.50;103052.81;5071784;28;20041;-68
2021/08/24 06:58:42;;;;;;;4.63;3.22;;;;;;;22.21;72.63;103048.28;5054220;28;20041;-67
2021/08/24 07:01:24;;;;;;;5.75;3.30;;;;;;;22.20;72.77;103058.16;5075238;28;20090;-67
2021/08/24 07:03:51;;;;;;;5.97;3.80;;;;;;;22.21;72.96;103058.97;5071585;28;20507;-67
2021/08/24 07:06:17;;;;;;;6.15;3.40;;;;;;;22.21;73.19;103062.50;5086257;28;20384;-67
2021/08/24 07:08:43;;;;;;;6.63;3.70;;;;;;;22.22;73.06;103060.66;5078926;28;20189;-68
2021/08/24 07:11:09;;;;;;;4.95;3.30;;;;;;;22.22;72.91;103060.66;5068245;28;20514;-68
2021/08/24 07:13:35;;;;;;;6.40;3.30;;;;;;;22.22;72.94;103063.31;5089223;28;20036;-69
2021/08/24 07:16:04;;;;;;;5.90;3.55;;;;;;;22.23;73.22;103062.34;5089103;28;20044;-69
2021/08/24 07:18:30;;;;;;;6.55;3.78;;;;;;;22.22;73.14;103061.50;5081733;28;20425;-67
2021/08/24 07:20:55;;;;;;;4.75;3.45;;;;;;;22.22;73.17;103055.31;5060803;28;20036;-67
2021/08/24 07:23:21;;;;;;;4.53;3.35;;;;;;;22.22;73.05;103060.66;5079374;28;20052;-67
2021/08/24 07:25:47;;;;;;;6.38;3.70;;;;;;;22.23;73.34;103067.69;5070532;28;20040;-68
2021/08/24 07:28:14;;;;;;;7.10;4.28;;;;;;;22.23;73.42;103063.16;5053612;28;20111;-68
2021/08/24 07:30:45;;;;;;;5.65;3.55;;;;;;;22.24;73.59;103069.34;5066221;28;20057;-68
2021/08/24 07:33:11;;;;;;;5.20;3.47;;;;;;;22.24;73.39;103072.88;5050393;28;20055;-67
2021/08/24 07:35:36;;;;;;;6.47;3.95;;;;;;;22.24;73.59;103075.53;5073747;28;20040;-68
2021/08/24 07:38:03;;;;;;;9.18;4.38;;;;;;;22.24;73.67;103077.38;5071525;28;20097;-68
2021/08/24 07:40:30;;;;;;;8.18;3.92;;;;;;;22.26;74.08;103078.91;5090427;28;20032;-68
2021/08/24 07:42:56;;;;;;;7.18;4.43;;;;;;;22.26;73.90;103080.75;5091375;28;20169;-67
2021/08/24 07:45:22;;;;;;;6.47;4.28;;;;;;;22.26;73.86;103083.44;5089385;28;20090;-68
2021/08/24 07:47:47;;;;;;;8.30;4.65;;;;;;;22.26;73.80;103083.44;5092415;28;20068;-68
2021/08/24 07:50:14;;;;;;;16.75;4.88;;;;;;;22.26;73.99;103084.25;5090733;28;20028;-68
2021/08/24 07:52:39;;;;;;;10.48;4.18;;;;;;;22.26;73.98;103088.78;5091235;28;20024;-67
2021/08/24 07:55:06;;;;;;;9.35;4.65;;;;;;;22.25;73.87;103087.94;5086353;28;20031;-67
2021/08/24 07:57:32;;;;;;;11.75;5.40;;;;;;;22.26;73.84;103086.09;5071934;28;20097;-66
2021/08/24 07:59:57;;;;;;;8.65;5.07;;;;;;;22.24;73.65;103088.91;5077311;28;20039;-67
2021/08/24 08:02:23;;;;;;;11.52;6.20;;;;;;;22.22;73.12;103087.41;5063910;28;20067;-68
2021/08/24 08:04:48;;;;;;;9.77;5.03;;;;;;;22.21;72.97;103083.03;5102034;28;20035;-66
2021/08/24 08:07:15;;;;;;;11.77;4.90;;;;;;;22.21;72.88;103093.75;5100340;28;20039;-66
2021/08/24 08:09:41;;;;;;;12.10;5.85;;;;;;;22.20;72.75;103081.38;5098576;28;20040;-67
2021/08/24 08:12:06;;;;;;;13.90;5.80;;;;;;;22.20;72.73;103090.22;5077436;28;20595;-66
2021/08/24 08:14:32;;;;;;;16.70;6.32;;;;;;;22.19;73.00;103090.38;5092321;28;20446;-67
2021/08/24 08:16:57;;;;;;;11.55;6.10;;;;;;;22.20;72.78;103084.03;5071889;28;20032;-67
2021/08/24 08:19:23;;;;;;;16.50;7.38;;;;;;;22.20;72.37;103087.56;5104267;28;20059;-66
2021/08/24 08:21:48;;;;;;;15.90;6.68;;;;;;;22.19;72.56;103095.75;5096317;28;20043;-66
2021/08/24 08:24:14;;;;;;;11.68;6.05;;;;;;;22.20;72.59;103094.75;5078778;28;20036;-67
2021/08/24 08:26:40;;;;;;;13.20;7.07;;;;;;;22.19;72.60;103093.91;5076152;28;20032;-67
2021/08/24 08:29:09;;;;;;;16.23;6.45;;;;;;;22.20;72.68;103100.09;5091919;28;20061;-67
2021/08/24 08:31:40;;;;;;;11.25;7.63;;;;;;;22.20;72.59;103092.06;5100787;28;20081;-67
2021/08/24 08:34:06;;;;;;;11.77;6.72;;;;;;;22.20;72.82;103089.38;5088525;28;20118;-65
2021/08/24 08:36:32;;;;;;;17.83;6.78;;;;;;;22.21;72.90;103091.06;5108488;28;20119;-66
2021/08/24 08:38:57;;;;;;;10.80;6.32;;;;;;;22.21;73.03;103091.06;5094967;28;20031;-70
2021/08/24 08:41:35;;;;;;;13.65;7.03;;;;;;;22.20;73.32;103090.22;5072729;28;20681;-70
2021/08/24 08:44:11;;;;;;;13.40;7.78;;;;;;;22.23;73.05;103094.41;5093555;28;20043;-69
2021/08/24 08:46:42;;;;;;;12.82;8.18;;;;;;;22.21;72.95;103096.41;5105241;28;20035;-70
2021/08/24 08:49:23;;;;;;;15.43;8.90;;;;;;;22.22;72.56;103093.56;5084635;28;20040;-69
2021/08/24 08:52:17;;;;;;;14.98;9.30;;;;;;;22.20;72.48;103090.22;5107622;28;20061;-69
2021/08/24 08:55:04;;;;;;;11.18;7.82;;;;;;;22.20;72.53;103103.59;5103187;28;20023;-69
2021/08/24 08:57:40;;;;;;;11.63;8.15;;;;;;;22.19;72.05;103099.25;5086109;28;20047;-70
2021/08/24 09:00:17;;;;;;;16.20;9.55;;;;;;;22.18;71.81;103102.91;5104773;28;20114;-69
2021/08/24 09:02:51;;;;;;;15.10;9.55;;;;;;;22.19;71.73;103109.09;5103134;28;20059;-69
2021/08/24 09:05:21;;;;;;;12.55;8.75;;;;;;;22.21;71.61;103107.09;5103031;28;20458;-69
2021/08/24 09:07:52;;;;;;;13.45;9.10;;;;;;;22.20;71.56;103114.28;5104023;28;20034;-70
2021/08/24 09:10:23;;;;;;;14.82;9.27;;;;;;;22.21;71.35;103115.13;5093071;28;20184;-63
2021/08/24 09:13:04;;;;;;;14.40;10.00;;;;;;;22.17;71.21;103121.78;5083277;28;20031;-69
2021/08/24 09:15:45;;;;;;;15.85;8.38;;;;;;;22.17;71.11;103125.31;5101312;28;20063;-69
2021/08/24 09:18:32;;;;;;;15.95;9.88;;;;;;;22.15;70.62;103123.78;5089792;28;20032;-68
2021/08/24 09:21:03;;;;;;;13.32;9.10;;;;;;;22.17;70.42;103119.13;5087174;28;20047;-69
2021/08/24 09:23:30;;;;;;;12.15;8.82;;;;;;;22.17;70.58;103132.50;5087630;28;20059;-69
2021/08/24 09:26:37;;;;;;;15.45;9.38;;;;;;;22.13;70.26;103131.13;5069487;28;20048;-69
2021/08/24 09:29:05;;;;;;;13.95;9.77;;;;;;;22.16;69.87;103136.16;5051600;28;20111;-69
2021/08/24 09:31:32;;;;;;;14.52;10.35;;;;;;;22.15;70.13;103138.00;5083857;28;20043;-69
2021/08/24 09:33:58;;;;;;;13.88;9.70;;;;;;;22.14;69.72;103133.66;5090443;28;20038;-67
2021/08/24 09:36:23;;;;;;;13.77;8.90;;;;;;;22.13;69.68;103133.81;5047916;28;20056;-69
2021/08/24 09:38:57;;;;;;;31.13;11.38;;;;;;;22.11;69.43;103133.97;5089951;28;20036;-69
2021/08/24 09:41:29;;;;;;;13.30;10.07;;;;;;;22.09;69.38;103134.13;5087240;28;20030;-70
2021/08/24 09:44:34;;;;;;;14.15;10.23;;;;;;;22.04;69.33;103128.34;5091342;28;20034;-70
2021/08/24 09:47:12;;;;;;;14.52;9.93;;;;;;;;;;5037777;28;20040;-67
2021/08/24 09:49:41;;;;;;;13.77;10.13;;;;;;;22.07;69.11;103133.41;5028722;28;20042;-69
2021/08/24 09:52:12;;;;;;;12.95;9.73;;;;;;;22.06;68.83;103133.56;5058800;28;20078;-69
2021/08/24 09:54:50;;;;;;;13.25;10.63;;;;;;;22.03;68.61;103136.53;5088806;28;20108;-69
2021/08/24 09:57:28;;;;;;;13.93;10.57;;;;;;;22.03;68.85;103131.19;5109674;28;20028;-68
2021/08/24 09:59:59;;;;;;;14.05;9.73;;;;;;;22.03;68.81;103134.72;5098974;28;20032;-69
2021/08/24 10:02:45;;;;;;;15.88;10.70;;;;;;;22.00;68.47;103132.34;5084553;28;20055;-69
2021/08/24 10:05:11;;;;;;;14.05;10.95;;;;;;;;;;5060161;28;20776;-70
2021/08/24 10:07:48;;;;;;;15.43;10.77;;;;;;;22.03;68.65;103129.34;5073323;28;20032;-68
2021/08/24 10:10:36;;;;;;;15.45;12.20;;;;;;;21.98;68.29;103133.50;5089684;28;20032;-68
2021/08/24 10:13:23;;;;;;;16.40;11.88;;;;;;;21.96;68.22;103136.34;5099291;28;20069;-67
2021/08/24 10:15:49;;;;;;;17.02;11.85;;;;;;;21.99;68.25;103144.03;5088171;28;20455;-68
2021/08/24 10:18:23;;;;;;;16.70;11.82;;;;;;;21.97;68.33;103138.00;5089070;28;20047;-68
2021/08/24 10:20:56;;;;;;;14.85;11.77;;;;;;;21.97;68.11;103138.00;5092223;28;20108;-68
2021/08/24 10:23:56;;;;;;;15.77;12.15;;;;;;;21.93;68.04;103141.97;5094539;28;20079;-67
2021/08/24 10:26:28;;;;;;;17.83;12.55;;;;;;;21.96;68.01;103141.69;5082212;28;20048;-68
2021/08/24 10:28:57;;;;;;;18.70;12.55;;;;;;;21.97;67.73;103140.69;5093514;28;20470;-68
2021/08/24 10:31:35;;;;;;;16.85;12.20;;;;;;;21.94;67.79;103135.66;5076692;28;20363;-68
2021/08/24 10:34:04;;;;;;;16.70;11.18;;;;;;;21.97;67.82;103138.00;5092275;28;20043;-67
2021/08/24 10:36:41;;;;;;;15.85;11.07;;;;;;;21.96;67.99;103138.19;5099581;28;20359;-67
2021/08/24 10:39:16;;;;;;;16.55;11.60;;;;;;;21.97;68.08;103140.69;5098727;28;20027;-68
2021/08/24 10:41:50;;;;;;;;;;;;;;;21.89;68.11;103134.44;5087688;28;20431;-68
2021/08/24 10:44:28;;;;;;;52.65;33.00;;;;;;;21.93;67.75;103141.97;5104261;28;19939;-68
2021/08/24 10:47:19;;;;;;;25.60;18.35;;;;;;;21.91;67.80;103135.94;5105423;28;20378;-68
2021/08/24 10:49:45;;;;;;;30.50;20.00;;;;;;;21.94;67.96;103135.66;5077356;28;20039;-68
2021/08/24 10:52:14;;;;;;;27.95;19.52;;;;;;;21.95;67.76;103136.50;5105925;28;20032;-68
2021/08/24 10:54:46;;;;;;;27.15;21.38;;;;;;;21.95;67.60;103126.66;5106101;28;20043;-68
2021/08/24 10:57:35;;;;;;;24.63;19.15;;;;;;;21.96;67.50;103125.66;5084806;28;20036;-68
2021/08/24 11:00:48;;;;;;;20.67;16.80;;;;;;;21.96;67.64;103124.81;5079304;28;20044;-68
2021/08/24 11:03:19;;;;;;;20.65;15.55;;;;;;;22.00;67.12;103127.00;5057038;28;20038;-68
2021/08/24 11:05:51;;;;;;;17.55;13.50;;;;;;;22.00;67.07;103124.34;5103959;28;20681;-68
2021/08/24 11:08:43;;;;;;;20.27;15.27;;;;;;;22.00;66.78;103120.81;5087305;28;20058;-68
2021/08/24 11:11:24;;;;;;;19.48;14.20;;;;;;;21.98;67.02;103123.66;5087118;28;20426;-67
2021/08/24 11:14:03;;;;;;;19.30;13.68;;;;;;;21.99;66.65;103125.34;5093176;28;20480;-68
2021/08/24 11:16:31;;;;;;;17.88;12.88;;;;;;;22.02;66.86;103119.66;5089729;28;20024;-68
2021/08/24 11:19:11;;;;;;;16.50;12.73;;;;;;;22.03;66.62;103123.19;5089557;28;20071;-68
2021/08/24 11:21:39;;;;;;;15.95;11.63;;;;;;;;;;5088679;28;20035;-68
2021/08/24 11:24:32;;;;;;;18.15;12.57;;;;;;;22.02;66.94;103114.31;5092699;28;20064;-68
2021/08/24 11:27:15;;;;;;;14.95;12.27;;;;;;;22.05;66.32;103108.69;5099384;28;20028;-68
2021/08/24 11:30:00;;;;;;;17.35;12.25;;;;;;;;;;5091563;28;20040;-70
2021/08/24 11:32:29;;;;;;;;;;;;;;;22.00;66.65;103105.63;5089330;28;20040;-70
2021/08/24 11:35:07;;;;;;;13.95;10.63;;;;;;;22.06;66.76;103110.34;5102153;28;19924;-70
2021/08/24 11:38:02;;;;;;;15.63;11.00;;;;;;;22.06;66.62;103105.00;5101064;28;20055;-70
2021/08/24 11:40:49;;;;;;;16.45;10.98;;;;;;;22.09;66.65;103098.50;5077141;28;20039;-70
2021/08/24 11:43:26;;;;;;;16.85;10.32;;;;;;;22.10;66.61;103103.72;5100017;28;20035;-70